Time;durP1;ratioP1;P1;durP2;ratioP2;P2;SDS_P1;SDS_P2;PMS_P1;PMS_P2;Temp;Humidity;BMP_temperature;BMP_pressure;BME280_temperature;BME280_humidity;BME280_pressure;Samples;Min_cycle;Max_cycle;Signal;HPM_P1;HPM_P2
2022/01/17 00:01:07;;;;;;;197.38;161.27;;;;;;;14.71;31.21;94838.66;5009786;28;20369;-65
2022/01/17 00:03:33;;;;;;;200.43;162.95;;;;;;;14.70;31.11;94836.38;5009423;28;20111;-66
2022/01/17 00:05:59;;;;;;;197.85;160.02;;;;;;;14.71;31.05;94843.28;5004249;28;20053;-65
2022/01/17 00:08:25;;;;;;;196.63;161.02;;;;;;;14.70;31.10;94845.22;5005057;28;20668;-66
2022/01/17 00:10:51;;;;;;;193.02;157.93;;;;;;;14.70;31.14;94845.22;5006605;28;20082;-65
2022/01/17 00:13:24;;;;;;;199.93;161.95;;;;;;;14.69;31.05;94849.09;5006500;28;20049;-66
2022/01/17 00:15:56;;;;;;;201.68;164.20;;;;;;;14.69;30.99;94843.69;5006916;28;20052;-65
2022/01/17 00:18:29;;;;;;;199.73;161.73;;;;;;;14.70;31.02;94849.84;5008081;28;20057;-66
2022/01/17 00:20:56;;;;;;;199.93;162.80;;;;;;;14.68;31.14;94847.56;5005402;28;20116;-65
2022/01/17 00:23:22;;;;;;;195.77;158.23;;;;;;;14.70;31.19;94856.00;5010190;28;20068;-66
2022/01/17 00:25:47;;;;;;;208.23;168.43;;;;;;;14.69;31.05;94848.31;5007102;28;20490;-66
2022/01/17 00:28:13;;;;;;;190.05;154.85;;;;;;;14.69;31.08;94849.09;5008693;28;20038;-65
2022/01/17 00:30:38;;;;;;;197.63;160.48;;;;;;;14.67;31.11;94845.28;5007148;28;20046;-65
2022/01/17 00:33:04;;;;;;;194.15;156.35;;;;;;;14.67;31.01;94847.97;5007906;28;20355;-65
2022/01/17 00:35:29;;;;;;;199.63;162.13;;;;;;;14.67;31.12;94842.59;5008442;28;20045;-66
2022/01/17 00:37:55;;;;;;;194.77;158.35;;;;;;;14.66;31.02;94843.75;5008013;28;20045;-66
2022/01/17 00:40:22;;;;;;;197.02;160.73;;;;;;;14.65;31.07;94842.25;5008161;28;20053;-65
2022/01/17 00:42:48;;;;;;;193.77;158.32;;;;;;;14.65;31.21;94836.84;5005316;28;20046;-66
2022/01/17 00:45:14;;;;;;;197.95;161.75;;;;;;;14.63;31.04;94829.19;5005684;28;20073;-65
2022/01/17 00:47:40;;;;;;;203.43;166.32;;;;;;;14.63;30.97;94834.56;5003148;28;20125;-66
2022/01/17 00:50:07;;;;;;;196.80;160.43;;;;;;;14.63;31.07;94836.50;5006250;28;20057;-66
2022/01/17 00:52:32;;;;;;;196.18;158.50;;;;;;;14.63;30.90;94844.59;5005941;28;20140;-66
2022/01/17 00:54:58;;;;;;;198.48;162.27;;;;;;;14.64;31.02;94843.41;5009101;28;20137;-66
2022/01/17 00:57:24;;;;;;;192.98;154.85;;;;;;;14.63;30.96;94847.28;5008007;28;20057;-66
2022/01/17 00:59:49;;;;;;;200.13;161.02;;;;;;;14.64;30.93;94848.78;5007431;28;20053;-66
2022/01/17 01:02:15;;;;;;;196.25;158.60;;;;;;;14.64;30.93;94857.63;5005473;28;20054;-66
2022/01/17 01:04:41;;;;;;;202.80;164.18;;;;;;;14.65;30.90;94859.16;5006658;28;20053;-66
2022/01/17 01:07:06;;;;;;;194.32;157.10;;;;;;;14.62;30.93;94865.34;5005194;28;20060;-66
2022/01/17 01:09:39;;;;;;;190.35;154.50;;;;;;;14.64;31.13;94856.88;5004679;28;20057;-65
2022/01/17 01:12:05;;;;;;;194.25;157.82;;;;;;;14.64;30.93;94859.56;5001599;28;20049;-65
2022/01/17 01:14:30;;;;;;;190.73;155.57;;;;;;;14.65;30.86;94861.84;4987908;28;20061;-66
2022/01/17 01:16:57;;;;;;;192.25;154.90;;;;;;;14.65;30.82;94858.38;5007839;28;20056;-66
2022/01/17 01:30:02;;;;;;;197.93;159.75;;;;;;;14.63;31.07;94866.88;5006512;28;20573;-65
2022/01/17 01:32:37;;;;;;;192.35;157.18;;;;;;;14.65;30.88;94877.22;5006568;28;20125;-66
2022/01/17 01:35:08;;;;;;;198.07;159.60;;;;;;;14.65;30.89;94882.63;5009085;28;20045;-65
2022/01/17 01:37:33;;;;;;;197.30;160.15;;;;;;;14.64;30.80;94881.09;5009787;28;20049;-65
2022/01/17 01:39:59;;;;;;;198.48;160.40;;;;;;;14.64;31.14;94894.56;5002959;28;20328;-65
2022/01/17 01:42:28;;;;;;;199.57;163.35;;;;;;;14.63;31.01;94883.03;5003992;28;20781;-66
2022/01/17 01:44:53;;;;;;;194.93;156.60;;;;;;;14.62;31.02;94886.88;5006824;28;20053;-66
2022/01/17 01:47:26;;;;;;;196.32;158.13;;;;;;;14.63;30.97;94891.09;5006606;28;20356;-66
2022/01/17 01:49:53;;;;;;;191.90;154.05;;;;;;;14.63;30.97;94898.41;5006898;28;20060;-66
2022/01/17 01:52:19;;;;;;;193.10;155.13;;;;;;;14.62;31.01;94894.97;5007067;28;20383;-65
2022/01/17 01:54:45;;;;;;;199.95;160.85;;;;;;;14.63;30.95;94893.78;5004339;28;20061;-66
2022/01/17 01:57:11;;;;;;;196.55;158.75;;;;;;;14.62;30.80;94892.28;5005058;28;20056;-65
2022/01/17 01:59:37;;;;;;;196.73;157.40;;;;;;;14.64;30.88;94899.94;5009847;28;20045;-66
2022/01/17 02:02:04;;;;;;;191.45;155.25;;;;;;;14.63;30.93;94901.09;5006021;28;20062;-65
2022/01/17 02:04:30;;;;;;;195.15;157.73;;;;;;;14.63;30.97;94898.41;5005347;28;20061;-65
2022/01/17 02:06:56;;;;;;;191.02;154.80;;;;;;;14.61;30.90;94904.22;5005483;28;20042;-66
2022/01/17 02:09:23;;;;;;;191.23;154.60;;;;;;;14.62;30.96;94900.34;5006524;28;20187;-65
2022/01/17 02:11:50;;;;;;;195.40;158.52;;;;;;;14.60;30.88;94883.09;5004123;28;20187;-66
2022/01/17 02:14:16;;;;;;;199.32;160.90;;;;;;;14.61;31.09;94892.69;5003972;28;20050;-65
2022/01/17 02:16:43;;;;;;;191.95;155.82;;;;;;;14.61;31.01;94882.69;5005253;28;20348;-66
2022/01/17 02:19:10;;;;;;;198.50;161.05;;;;;;;14.61;30.97;94885.38;5003738;28;20061;-65
2022/01/17 02:21:46;;;;;;;191.63;153.05;;;;;;;14.61;30.88;94885.38;5004924;28;20543;-65
2022/01/17 02:24:18;;;;;;;194.90;157.30;;;;;;;14.60;31.12;94883.84;5004502;28;20056;-65
2022/01/17 02:26:44;;;;;;;195.90;157.82;;;;;;;14.60;31.04;94885.78;5006369;28;20049;-65
2022/01/17 02:29:10;;;;;;;191.05;154.20;;;;;;;14.60;30.85;94875.78;5006429;28;20077;-65
2022/01/17 02:31:36;;;;;;;199.88;161.38;;;;;;;14.61;31.15;94877.28;5005591;28;20405;-66
2022/01/17 02:34:03;;;;;;;190.88;154.70;;;;;;;14.59;31.22;94868.88;5005872;28;20053;-65
2022/01/17 02:36:30;;;;;;;203.98;164.77;;;;;;;14.61;31.19;94876.53;5002875;28;20057;-66
2022/01/17 02:38:55;;;;;;;201.55;162.45;;;;;;;14.60;31.30;94873.09;5003329;28;20111;-66
2022/01/17 02:41:21;;;;;;;197.15;161.43;;;;;;;14.60;31.08;94873.09;5004526;28;20037;-66
2022/01/17 02:43:47;;;;;;;194.48;157.20;;;;;;;14.58;31.13;94866.59;5005547;28;20041;-65
2022/01/17 02:46:24;;;;;;;202.50;163.95;;;;;;;14.58;31.26;94867.34;5005684;28;20140;-66
2022/01/17 02:48:50;;;;;;;196.20;157.43;;;;;;;14.61;31.15;94876.53;4992797;28;20525;-65
2022/01/17 02:51:16;;;;;;;202.88;163.65;;;;;;;14.60;31.08;94864.25;5006412;28;20129;-66
2022/01/17 02:53:42;;;;;;;202.68;163.20;;;;;;;14.60;31.24;94870.38;5005154;28;20371;-65
2022/01/17 02:56:10;;;;;;;190.45;154.75;;;;;;;14.59;31.12;94868.88;5005718;28;20501;-65
2022/01/17 02:58:38;;;;;;;198.98;158.52;;;;;;;14.60;31.03;94875.00;5005427;28;20044;-65
2022/01/17 03:01:07;;;;;;;197.27;157.25;;;;;;;14.60;31.28;94864.25;5003170;28;20045;-66
2022/01/17 03:03:33;;;;;;;197.27;158.35;;;;;;;14.59;31.30;94868.88;5008212;28;20237;-66
2022/01/17 03:05:59;;;;;;;198.02;159.52;;;;;;;14.58;31.26;94867.34;5005275;28;20050;-65
2022/01/17 03:08:27;;;;;;;195.25;156.15;;;;;;;14.58;31.16;94853.13;5006758;28;20452;-65
2022/01/17 03:10:54;;;;;;;193.10;156.48;;;;;;;14.60;31.19;94856.16;5004490;28;20104;-65
2022/01/17 03:13:25;;;;;;;204.73;164.82;;;;;;;14.59;31.10;94852.72;5003868;28;20486;-65
2022/01/17 03:15:57;;;;;;;203.60;162.85;;;;;;;14.59;31.30;94852.72;5008049;28;21128;-65
2022/01/17 03:18:29;;;;;;;189.32;151.63;;;;;;;14.60;31.22;94845.41;5007746;28;20320;-66
2022/01/17 03:20:55;;;;;;;211.75;169.25;;;;;;;14.60;31.05;94842.72;5005282;28;20070;-65
2022/01/17 03:23:21;;;;;;;197.95;159.57;;;;;;;14.61;31.09;94841.53;5007163;28;20055;-65
2022/01/17 03:25:46;;;;;;;204.93;164.50;;;;;;;14.59;31.26;94833.88;5002649;28;20041;-66
2022/01/17 03:28:12;;;;;;;196.68;158.93;;;;;;;14.59;31.18;94836.56;5002641;28;20199;-65
2022/01/17 03:30:38;;;;;;;191.02;152.35;;;;;;;14.59;31.09;94831.19;5005060;28;20121;-65
2022/01/17 03:33:05;;;;;;;202.00;163.35;;;;;;;14.58;31.19;94834.28;5003642;28;20452;-65
2022/01/17 03:35:31;;;;;;;193.68;156.00;;;;;;;14.59;31.42;94839.25;5008844;28;20051;-66
2022/01/17 03:37:57;;;;;;;191.32;153.00;;;;;;;14.58;31.26;94843.13;4986910;28;20379;-66
2022/01/17 03:40:22;;;;;;;192.65;154.80;;;;;;;14.58;31.19;94845.06;5008596;28;20081;-65
2022/01/17 03:42:48;;;;;;;196.57;157.63;;;;;;;14.58;31.22;94848.50;5007839;28;20056;-65
2022/01/17 03:45:14;;;;;;;189.82;152.77;;;;;;;14.58;31.29;94848.50;5004878;28;20542;-65
2022/01/17 03:47:43;;;;;;;200.20;159.48;;;;;;;14.59;31.25;94858.09;4997497;28;20112;-65
2022/01/17 03:50:16;;;;;;;195.63;158.30;;;;;;;14.58;31.17;94861.19;4996524;28;20579;-66
2022/01/17 03:52:42;;;;;;;193.52;155.70;;;;;;;14.55;31.25;94857.41;5009769;28;20057;-66
2022/01/17 03:55:10;;;;;;;199.30;159.93;;;;;;;14.58;31.16;94863.91;5007688;28;20045;-65
2022/01/17 03:57:36;;;;;;;190.38;153.00;;;;;;;14.57;31.18;94865.06;5007233;28;20060;-65
2022/01/17 04:00:07;;;;;;;190.68;153.05;;;;;;;14.56;31.23;94852.78;5006593;28;20050;-65
2022/01/17 04:02:32;;;;;;;194.68;155.35;;;;;;;14.56;31.09;94861.63;5006285;28;20037;-66
2022/01/17 04:04:58;;;;;;;194.50;155.73;;;;;;;14.57;31.25;94859.69;5006785;28;20056;-65
2022/01/17 04:07:24;;;;;;;193.27;155.55;;;;;;;14.57;31.08;94849.69;5008185;28;20058;-65
2022/01/17 04:09:49;;;;;;;191.50;154.40;;;;;;;14.58;31.06;94850.44;5009279;28;20045;-66
2022/01/17 04:12:14;;;;;;;190.90;153.07;;;;;;;14.54;31.26;94839.72;5006097;28;20053;-65
2022/01/17 04:14:40;;;;;;;193.68;157.10;;;;;;;14.56;31.26;94842.00;5005693;28;20259;-65
2022/01/17 04:17:06;;;;;;;188.55;151.32;;;;;;;14.57;31.17;94835.44;5006362;28;20041;-65
2022/01/17 04:19:32;;;;;;;197.38;159.63;;;;;;;14.57;31.33;94822.00;5006937;28;20049;-65
2022/01/17 04:21:58;;;;;;;191.80;152.60;;;;;;;14.58;31.23;94818.91;5005621;28;20041;-66
2022/01/17 04:24:24;;;;;;;194.60;155.95;;;;;;;14.57;31.43;94822.00;5010192;28;20050;-65
2022/01/17 04:26:49;;;;;;;190.18;154.10;;;;;;;14.56;31.41;94812.41;5007047;28;20442;-65
2022/01/17 04:29:15;;;;;;;193.35;156.85;;;;;;;14.56;31.34;94793.56;5006279;28;20139;-65
2022/01/17 04:31:40;;;;;;;194.85;156.75;;;;;;;14.56;31.37;94798.94;5007579;28;20049;-65
2022/01/17 04:34:06;;;;;;;190.20;155.30;;;;;;;14.56;31.66;94810.47;4991162;28;20042;-65
2022/01/17 04:36:32;;;;;;;193.23;155.25;;;;;;;14.55;31.38;94802.81;5004815;28;20060;-65
2022/01/17 04:38:57;;;;;;;193.43;154.75;;;;;;;14.54;31.37;94793.97;5008419;28;20038;-65
2022/01/17 04:41:34;;;;;;;194.93;155.77;;;;;;;14.53;31.46;94797.84;5008507;28;20046;-66
2022/01/17 04:45:07;;;;;;;193.70;155.27;;;;;;;14.53;31.34;94794.38;5008680;28;20061;-65
2022/01/17 04:46:45;;;;;;;195.52;155.50;;;;;;;14.50;31.46;94801.34;5004694;28;20100;-65
2022/01/17 04:49:11;;;;;;;187.85;151.93;;;;;;;14.52;31.48;94811.69;5008982;28;20587;-65
2022/01/17 04:51:37;;;;;;;190.35;151.20;;;;;;;14.49;31.49;94811.34;5007578;28;20061;-65
2022/01/17 04:54:25;;;;;;;192.93;154.50;;;;;;;14.55;31.32;94810.88;5003227;28;20470;-65
2022/01/17 04:56:48;;;;;;;191.32;153.57;;;;;;;14.55;31.50;94810.88;5008454;28;20525;-66
2022/01/17 04:59:14;;;;;;;191.13;153.70;;;;;;;14.53;31.55;94797.84;5008409;28;20338;-65
2022/01/17 05:01:39;;;;;;;195.50;155.63;;;;;;;14.55;31.47;94805.50;5008038;28;20049;-65
2022/01/17 05:04:05;;;;;;;193.00;155.20;;;;;;;14.59;31.53;94806.97;5004809;28;20436;-65
2022/01/17 05:06:30;;;;;;;188.98;152.60;;;;;;;14.59;31.63;94809.66;5008796;28;20092;-65
2022/01/17 05:08:56;;;;;;;196.77;157.35;;;;;;;14.59;31.58;94804.25;5005963;28;20065;-65
2022/01/17 05:11:24;;;;;;;192.82;155.15;;;;;;;14.59;31.37;94812.34;5006886;28;20172;-65
2022/01/17 05:13:50;;;;;;;192.70;154.32;;;;;;;14.59;31.42;94822.34;5012583;28;20096;-65
2022/01/17 05:16:17;;;;;;;201.20;161.43;;;;;;;14.61;31.37;94822.69;5005963;28;20057;-65
2022/01/17 05:21:08;;;;;;;195.43;155.93;;;;;;;14.63;31.46;94839.97;5007677;28;20068;-65
2022/01/17 05:23:34;;;;;;;196.73;157.88;;;;;;;14.65;31.50;94843.00;5005582;28;20041;-65
2022/01/17 05:25:59;;;;;;;203.77;164.25;;;;;;;14.66;31.42;94838.38;5003973;28;20111;-65
2022/01/17 05:28:25;;;;;;;192.32;154.13;;;;;;;14.65;31.48;94832.22;4997680;28;20115;-65
2022/01/17 05:30:50;;;;;;;189.77;153.32;;;;;;;14.68;31.45;94836.78;5011054;28;20042;-65
2022/01/17 05:33:16;;;;;;;189.85;153.63;;;;;;;14.68;31.46;94825.25;5005340;28;20461;-64
2022/01/17 05:35:41;;;;;;;200.65;161.68;;;;;;;14.69;31.53;94819.47;5006195;28;20100;-65
2022/01/17 05:38:07;;;;;;;200.38;159.60;;;;;;;14.70;31.47;94812.91;5007637;28;20060;-64
2022/01/17 05:40:33;;;;;;;199.20;160.95;;;;;;;14.71;31.38;94813.66;4992871;28;20474;-64
2022/01/17 05:42:58;;;;;;;202.25;163.00;;;;;;;14.70;31.51;94817.53;5005653;28;20046;-63
2022/01/17 05:45:24;;;;;;;200.38;160.85;;;;;;;14.72;31.46;94809.81;5002602;28;20045;-65
2022/01/17 05:47:49;;;;;;;200.68;161.45;;;;;;;14.73;31.46;94811.31;5004824;28;20076;-67
2022/01/17 05:50:15;;;;;;;201.90;163.70;;;;;;;14.73;31.54;94808.63;4981132;28;20053;-66
2022/01/17 05:52:42;;;;;;;207.00;165.05;;;;;;;14.72;31.43;94801.72;5002474;28;20651;-64
2022/01/17 05:55:11;;;;;;;194.20;157.05;;;;;;;14.73;31.47;94814.03;5005434;28;20076;-65
2022/01/17 05:57:36;;;;;;;188.68;152.52;;;;;;;14.73;30.98;94822.84;5007418;28;20056;-66
2022/01/17 06:00:07;;;;;;;198.68;160.57;;;;;;;14.74;31.42;94818.22;5005715;28;20053;-65
2022/01/17 06:02:32;;;;;;;210.95;170.15;;;;;;;14.73;31.36;94832.88;4998100;28;20588;-66
2022/01/17 06:04:58;;;;;;;201.57;162.43;;;;;;;14.66;31.21;94846.44;4996515;28;20038;-64
2022/01/17 06:07:23;;;;;;;204.98;165.00;;;;;;;14.59;31.51;94850.03;5002730;28;20079;-64
2022/01/17 06:09:49;;;;;;;191.63;155.00;;;;;;;14.61;31.36;94836.16;5004958;28;20085;-65
2022/01/17 06:12:15;;;;;;;190.57;154.80;;;;;;;14.66;31.33;94828.38;5002954;28;20041;-64
2022/01/17 06:14:40;;;;;;;199.32;160.73;;;;;;;14.71;31.33;94829.81;5004184;28;20105;-65
2022/01/17 06:17:07;;;;;;;196.98;158.75;;;;;;;14.72;31.24;94834.81;4998365;28;20426;-63
2022/01/17 06:19:32;;;;;;;192.77;154.20;;;;;;;14.72;31.24;94832.09;5003529;28;20107;-63
2022/01/17 06:21:58;;;;;;;197.15;159.43;;;;;;;14.75;31.24;94838.59;5002474;28;20129;-64
2022/01/17 06:24:23;;;;;;;189.77;151.20;;;;;;;14.73;31.25;94849.78;5006761;28;20157;-65
2022/01/17 06:26:49;;;;;;;197.02;158.57;;;;;;;14.72;31.38;94852.88;5004219;28;20049;-65
2022/01/17 06:29:16;;;;;;;194.77;155.60;;;;;;;14.71;31.20;94852.13;5004414;28;20227;-65
2022/01/17 06:31:43;;;;;;;205.13;165.50;;;;;;;14.72;31.10;94844.81;5007312;28;20049;-65
2022/01/17 06:34:10;;;;;;;202.13;163.75;;;;;;;14.73;31.42;94844.41;5004081;28;20057;-66
2022/01/17 06:36:37;;;;;;;200.75;167.40;;;;;;;14.74;31.27;94848.59;4999308;28;20522;-65
2022/01/17 06:39:04;;;;;;;192.43;155.40;;;;;;;14.75;31.41;94855.50;5005567;28;20046;-66
2022/01/17 06:41:30;;;;;;;193.60;155.82;;;;;;;14.77;31.33;94868.56;5004506;28;20069;-65
2022/01/17 06:43:56;;;;;;;193.68;155.77;;;;;;;14.76;31.28;94864.34;5005300;28;21551;-65
2022/01/17 06:46:22;;;;;;;195.00;158.25;;;;;;;14.79;31.30;94858.91;4996193;28;20041;-65
2022/01/17 06:48:47;;;;;;;195.70;158.45;;;;;;;14.78;31.44;94865.47;5001517;28;20199;-65
2022/01/17 06:51:14;;;;;;;193.20;155.05;;;;;;;14.80;31.30;94867.75;5006034;28;20128;-66
2022/01/17 06:53:41;;;;;;;194.35;158.32;;;;;;;14.80;31.22;94873.91;5006711;28;20057;-66
2022/01/17 06:56:07;;;;;;;191.23;155.98;;;;;;;14.80;31.37;94879.28;5007541;28;20057;-66
2022/01/17 06:58:32;;;;;;;191.80;155.65;;;;;;;14.79;31.40;94863.53;5005288;28;20046;-65
2022/01/17 07:00:58;;;;;;;195.23;157.20;;;;;;;14.79;31.33;94858.16;5007217;28;20050;-66
2022/01/17 07:03:23;;;;;;;193.10;154.77;;;;;;;14.79;31.31;94866.22;5009188;28;20034;-66
2022/01/17 07:05:49;;;;;;;200.95;162.10;;;;;;;14.80;31.40;94855.03;5006865;28;20045;-65
2022/01/17 07:08:14;;;;;;;191.55;155.93;;;;;;;14.80;31.30;94836.19;5006341;28;21380;-65
2022/01/17 07:10:40;;;;;;;194.82;158.80;;;;;;;14.82;31.40;94828.47;5005006;28;20119;-65
2022/01/17 07:13:05;;;;;;;192.95;154.35;;;;;;;14.82;31.34;94844.63;5008278;28;20642;-65
2022/01/17 07:15:31;;;;;;;191.95;155.13;;;;;;;14.83;31.28;94859.59;5010604;28;20548;-65
2022/01/17 07:17:57;;;;;;;192.68;156.13;;;;;;;14.84;31.68;94873.84;5008586;28;20111;-65
2022/01/17 07:20:23;;;;;;;195.48;158.65;;;;;;;14.81;31.42;94877.34;5009367;28;20112;-66
2022/01/17 07:22:48;;;;;;;194.95;157.65;;;;;;;14.83;31.28;94893.84;5012178;28;20132;-66
2022/01/17 07:25:14;;;;;;;195.85;157.38;;;;;;;14.83;31.38;94912.69;5011571;28;20498;-66
2022/01/17 07:27:40;;;;;;;190.70;153.18;;;;;;;14.81;31.40;94921.19;5011222;28;20699;-65
2022/01/17 07:30:07;;;;;;;190.80;154.00;;;;;;;14.82;31.30;94928.09;5011697;28;20261;-65
2022/01/17 07:32:34;;;;;;;205.05;165.52;;;;;;;14.83;31.43;94934.25;5011069;28;20534;-65
2022/01/17 07:34:59;;;;;;;188.23;153.07;;;;;;;14.82;31.59;94952.34;4999426;28;20052;-68
2022/01/17 07:37:25;;;;;;;192.45;155.30;;;;;;;14.83;31.50;94977.34;5014656;28;20087;-65
2022/01/17 07:39:50;;;;;;;188.23;152.73;;;;;;;14.83;31.42;94986.16;5011159;28;20060;-65
2022/01/17 07:42:16;;;;;;;197.55;158.75;;;;;;;14.82;31.40;94979.25;5011349;28;20050;-65
2022/01/17 07:44:43;;;;;;;194.25;157.00;;;;;;;14.82;31.46;94986.59;5008698;28;20441;-65
2022/01/17 07:47:16;;;;;;;194.70;158.25;;;;;;;14.81;31.44;94974.28;5009035;28;20497;-65
2022/01/17 07:49:44;;;;;;;192.65;155.73;;;;;;;14.83;31.45;94983.47;5011014;28;20508;-65
2022/01/17 07:52:11;;;;;;;189.85;155.55;;;;;;;14.84;31.38;94976.16;5011044;28;20065;-66
2022/01/17 07:54:43;;;;;;;193.02;157.95;;;;;;;14.82;31.45;94979.25;5012451;28;20137;-65
2022/01/17 07:57:10;;;;;;;188.60;151.98;;;;;;;14.86;31.37;94978.44;5008192;28;20419;-64
2022/01/17 07:59:36;;;;;;;192.02;156.80;;;;;;;14.83;31.61;94991.56;5011802;28;20733;-65
2022/01/17 08:02:02;;;;;;;192.80;158.02;;;;;;;14.83;31.55;94990.78;5006598;28;20069;-65
2022/01/17 08:04:28;;;;;;;194.85;158.77;;;;;;;14.82;31.76;94998.13;5007108;28;20057;-65
2022/01/17 08:06:54;;;;;;;191.48;155.43;;;;;;;14.83;31.43;94988.88;5009561;28;20146;-65
2022/01/17 08:09:30;;;;;;;188.90;152.15;;;;;;;14.85;31.54;94958.06;5010191;28;20064;-65
2022/01/17 08:11:58;;;;;;;193.23;157.80;;;;;;;14.85;31.52;94963.47;5013077;28;20050;-66
2022/01/17 08:14:24;;;;;;;197.43;160.98;;;;;;;14.83;31.43;94967.31;5010871;28;20058;-66
2022/01/17 08:16:51;;;;;;;189.90;153.55;;;;;;;14.86;31.27;94968.44;5011277;28;20124;-66
2022/01/17 08:19:17;;;;;;;190.43;153.70;;;;;;;14.87;31.41;94972.66;5013652;28;20152;-66
2022/01/17 08:21:43;;;;;;;186.90;152.68;;;;;;;14.86;31.40;94973.81;5010424;28;20033;-66
2022/01/17 08:24:08;;;;;;;196.38;158.30;;;;;;;14.86;31.51;94976.50;5009249;28;20074;-66
2022/01/17 08:26:34;;;;;;;201.80;165.07;;;;;;;14.87;31.45;94988.81;5009482;28;20083;-66
2022/01/17 08:29:00;;;;;;;189.82;155.55;;;;;;;14.87;31.37;94977.28;5009014;28;20045;-65
2022/01/17 08:31:26;;;;;;;196.57;159.68;;;;;;;14.87;31.26;94979.97;5008875;28;20056;-66
2022/01/17 08:33:51;;;;;;;190.77;155.63;;;;;;;14.87;31.40;94980.72;5010992;28;20103;-66
2022/01/17 08:36:19;;;;;;;198.90;160.75;;;;;;;14.87;31.50;94966.50;5009972;28;20053;-66
2022/01/17 08:38:46;;;;;;;193.25;157.27;;;;;;;14.86;31.55;94976.50;5009337;28;20049;-66
2022/01/17 08:41:12;;;;;;;191.15;155.15;;;;;;;14.87;31.44;94977.28;5009329;28;20050;-66
2022/01/17 08:43:38;;;;;;;201.57;163.93;;;;;;;14.85;31.55;94968.84;5012937;28;20053;-66
2022/01/17 08:46:06;;;;;;;190.40;154.82;;;;;;;14.85;31.48;94958.06;5010268;28;20041;-66
2022/01/17 08:48:31;;;;;;;184.80;149.57;;;;;;;14.82;31.49;94951.56;5008097;28;21455;-66
2022/01/17 08:50:57;;;;;;;189.40;154.82;;;;;;;14.86;31.52;94943.44;5008388;28;20116;-66
2022/01/17 08:53:22;;;;;;;189.95;153.95;;;;;;;14.85;31.48;94936.53;5008803;28;20053;-66
2022/01/17 08:55:48;;;;;;;206.77;166.02;;;;;;;14.86;31.62;94954.22;5005616;28;20188;-66
2022/01/17 08:58:14;;;;;;;193.35;156.45;;;;;;;14.87;31.60;94967.25;5007197;28;20069;-64
2022/01/17 09:00:40;;;;;;;190.18;153.55;;;;;;;14.88;31.52;94973.41;5009761;28;20128;-64
2022/01/17 09:03:06;;;;;;;191.50;154.02;;;;;;;14.89;31.50;94985.72;5008543;28;20049;-64
2022/01/17 09:05:34;;;;;;;190.45;155.43;;;;;;;14.82;31.52;94991.97;5006691;28;21407;-63
2022/01/17 09:08:00;;;;;;;195.93;157.32;;;;;;;14.79;31.67;94998.94;5007907;28;20042;-64
2022/01/17 09:10:26;;;;;;;190.60;155.13;;;;;;;14.80;31.76;94999.69;5007817;28;20363;-63
2022/01/17 09:12:53;;;;;;;199.57;161.88;;;;;;;14.78;31.59;94996.66;5007854;28;20046;-64
2022/01/17 09:15:19;;;;;;;194.40;157.10;;;;;;;14.78;31.63;95005.47;5010986;28;20474;-63
2022/01/17 09:17:45;;;;;;;193.45;155.15;;;;;;;14.76;31.68;94988.22;5007827;28;20056;-64
2022/01/17 09:20:11;;;;;;;195.05;158.30;;;;;;;14.76;31.63;95001.69;5010259;28;20442;-64
2022/01/17 09:22:37;;;;;;;189.85;154.48;;;;;;;14.82;31.69;95013.50;5008034;28;20042;-64
2022/01/17 09:25:06;;;;;;;191.48;153.00;;;;;;;14.83;31.54;95005.03;5005562;28;20101;-64
2022/01/17 09:27:36;;;;;;;191.30;155.15;;;;;;;14.84;31.74;95008.47;5010333;28;20072;-63
2022/01/17 09:30:08;;;;;;;190.02;154.07;;;;;;;14.86;31.39;95010.75;5009878;28;20110;-63
2022/01/17 09:32:33;;;;;;;192.80;154.90;;;;;;;14.83;31.69;95007.72;5005141;28;20065;-63
2022/01/17 09:34:59;;;;;;;185.70;152.07;;;;;;;14.86;31.53;95026.91;5009250;28;20045;-64
2022/01/17 09:37:25;;;;;;;189.70;152.45;;;;;;;14.87;31.48;95031.13;5007265;28;20057;-63
2022/01/17 09:39:51;;;;;;;194.77;155.60;;;;;;;14.86;31.62;95021.53;5006752;28;20053;-64
2022/01/17 09:42:17;;;;;;;192.85;155.95;;;;;;;14.83;31.63;95017.72;5005415;28;20513;-64
2022/01/17 09:44:42;;;;;;;195.00;158.02;;;;;;;14.85;31.55;95014.63;5006411;28;20464;-64
2022/01/17 09:47:11;;;;;;;190.57;154.50;;;;;;;14.86;31.64;95014.22;5007456;28;20592;-64
2022/01/17 09:49:50;;;;;;;191.13;154.98;;;;;;;14.87;31.63;95041.91;4993432;28;20103;-63
2022/01/17 09:52:35;;;;;;;188.35;151.98;;;;;;;14.87;31.58;95033.84;5005407;28;20042;-63
2022/01/17 09:55:13;;;;;;;195.93;158.30;;;;;;;14.88;31.65;95019.19;5007306;28;20123;-65
2022/01/17 09:57:48;;;;;;;189.00;152.98;;;;;;;14.89;31.65;95028.81;5007978;28;20101;-64
2022/01/17 10:00:15;;;;;;;196.15;156.38;;;;;;;14.84;31.60;95016.56;5005217;28;20041;-64
2022/01/17 10:02:42;;;;;;;189.20;153.20;;;;;;;14.81;31.73;95007.38;5012413;28;20103;-64
2022/01/17 10:05:08;;;;;;;187.05;151.20;;;;;;;14.86;31.69;95013.44;5010007;28;20042;-64
2022/01/17 10:07:52;;;;;;;190.60;154.63;;;;;;;14.86;31.76;95029.63;5010459;28;20075;-63
2022/01/17 10:10:46;;;;;;;192.32;155.57;;;;;;;14.84;31.59;95016.56;5007918;28;20052;-64
2022/01/17 10:13:27;;;;;;;191.70;154.50;;;;;;;14.86;31.79;95016.91;5009903;28;20144;-64
2022/01/17 10:16:18;;;;;;;200.77;161.43;;;;;;;14.83;31.72;94988.09;5009579;28;20045;-64
2022/01/17 10:19:03;;;;;;;195.27;157.18;;;;;;;14.79;31.63;94995.47;5008597;28;20077;-64
2022/01/17 10:21:44;;;;;;;189.13;151.35;;;;;;;14.79;31.94;94992.78;5008115;28;20045;-64
2022/01/17 10:24:27;;;;;;;192.23;153.52;;;;;;;14.78;31.92;94997.41;5007396;28;20116;-64
2022/01/17 10:27:23;;;;;;;195.23;157.63;;;;;;;14.83;31.77;95001.56;5004833;28;20050;-64
2022/01/17 10:35:24;;;;;;;192.45;154.98;;;;;;;14.88;31.73;94973.41;5008444;28;20046;-64
2022/01/17 10:38:01;;;;;;;192.95;155.20;;;;;;;14.88;31.85;94987.63;5010773;28;20497;-65
2022/01/17 10:40:33;;;;;;;206.50;166.75;;;;;;;14.90;31.80;94989.94;4989760;28;20395;-64
2022/01/17 10:43:01;;;;;;;187.77;151.43;;;;;;;14.90;31.85;94996.06;5007388;28;20111;-64
2022/01/17 10:45:34;;;;;;;195.73;158.70;;;;;;;14.89;31.77;94980.31;5004190;28;20077;-64
2022/01/17 10:48:03;;;;;;;198.48;161.18;;;;;;;14.90;31.83;94974.53;5011068;28;20115;-65
2022/01/17 10:50:36;;;;;;;188.27;151.82;;;;;;;14.93;31.72;94968.31;5011661;28;21377;-65
2022/01/17 10:53:04;;;;;;;189.20;154.27;;;;;;;14.91;31.78;94965.28;5013195;28;20377;-66
2022/01/17 10:55:34;;;;;;;193.70;157.10;;;;;;;14.86;31.82;94956.91;5011122;28;20345;-65
2022/01/17 10:58:03;;;;;;;192.40;156.02;;;;;;;14.88;31.81;94949.19;5009749;28;21787;-65
2022/01/17 11:00:34;;;;;;;192.75;156.77;;;;;;;14.90;31.62;94947.59;5010026;28;20394;-66
2022/01/17 11:03:05;;;;;;;194.75;157.43;;;;;;;14.91;31.64;94972.59;5008789;28;21789;-65
2022/01/17 11:05:32;;;;;;;190.45;154.57;;;;;;;14.91;31.84;94964.50;5009873;28;20459;-65
2022/01/17 11:08:01;;;;;;;198.85;161.90;;;;;;;14.90;31.85;94974.53;5009565;28;20103;-65
2022/01/17 11:10:31;;;;;;;194.18;157.63;;;;;;;14.83;31.74;94970.00;5009723;28;20054;-65
2022/01/17 11:12:58;;;;;;;;;;;;;;;14.81;31.71;94955.44;5014127;28;20233;-65
2022/01/17 11:15:25;;;;;;;194.25;154.02;;;;;;;14.82;31.99;94955.03;5011160;28;20362;-66
2022/01/17 11:17:57;;;;;;;190.15;153.00;;;;;;;14.74;31.56;94987.84;5011691;28;20053;-65
2022/01/17 11:20:27;;;;;;;194.05;157.48;;;;;;;14.72;31.83;94982.13;5010919;28;20058;-65
2022/01/17 11:22:55;;;;;;;191.52;155.43;;;;;;;14.64;31.55;94981.47;5006445;28;20042;-65